createdAt,value
2016-08-22T00:00:06.620Z,1037.68
2016-08-22T00:01:06.614Z,1037.68
2016-08-22T00:02:06.611Z,1037.69
2016-08-22T00:03:06.606Z,1037.67
2016-08-22T00:04:06.604Z,1037.68
2016-08-22T00:05:06.597Z,1037.66
2016-08-22T00:06:06.594Z,1037.66
2016-08-22T00:07:06.588Z,1037.69
2016-08-22T00:08:06.586Z,1037.66
2016-08-22T00:09:06.580Z,1037.66
2016-08-22T00:10:06.576Z,1037.67
2016-08-22T00:11:06.573Z,1037.66
2016-08-22T00:12:06.665Z,1037.66
2016-08-22T00:13:06.561Z,1037.68
2016-08-22T00:14:07.567Z,1037.72
2016-08-22T00:15:06.551Z,1037.71
2016-08-22T00:17:06.542Z,1037.7
2016-08-22T00:18:06.539Z,1037.68
2016-08-22T00:19:06.536Z,1037.71
2016-08-22T00:20:06.529Z,1037.73
2016-08-22T00:21:07.476Z,1037.69
2016-08-22T00:22:06.522Z,1037.75
2016-08-22T00:23:07.517Z,1037.72
2016-08-22T00:25:06.508Z,1037.79
2016-08-22T00:26:06.503Z,1037.82
2016-08-22T00:27:06.499Z,1037.83
2016-08-22T00:28:06.496Z,1037.84
2016-08-22T00:29:06.488Z,1037.83
2016-08-22T00:30:06.483Z,1037.85
2016-08-22T00:31:06.479Z,1037.85
2016-08-22T00:32:06.476Z,1037.92
2016-08-22T00:33:06.470Z,1037.93
2016-08-22T00:34:06.465Z,1037.95
2016-08-22T00:35:07.685Z,1037.94
2016-08-22T00:36:06.521Z,1037.98
2016-08-22T00:37:07.195Z,1037.97
2016-08-22T00:38:06.446Z,1037.96
2016-08-22T00:39:06.443Z,1037.97
2016-08-22T00:40:06.439Z,1037.91
2016-08-22T00:41:06.448Z,1037.93
2016-08-22T00:42:06.428Z,1037.92
2016-08-22T00:43:06.426Z,1037.9
2016-08-22T00:44:06.419Z,1037.93
2016-08-22T00:45:06.415Z,1037.91
2016-08-22T00:46:06.411Z,1037.93
2016-08-22T00:47:06.405Z,1037.91
2016-08-22T00:48:06.402Z,1037.91
2016-08-22T00:49:06.398Z,1037.91
2016-08-22T00:50:06.431Z,1037.94
2016-08-22T00:51:06.387Z,1037.92
2016-08-22T00:52:06.384Z,1037.95
2016-08-22T00:53:06.383Z,1037.98
2016-08-22T00:54:06.372Z,1038.02
2016-08-22T00:55:06.367Z,1038.01
2016-08-22T00:56:06.364Z,1038.02
2016-08-22T00:57:06.359Z,1038.04
2016-08-22T00:58:06.359Z,1038.02
2016-08-22T00:59:06.352Z,1038.04
2016-08-22T01:00:06.348Z,1038.08
2016-08-22T01:01:06.343Z,1038.05
2016-08-22T01:02:06.338Z,1038.09
2016-08-22T01:03:06.331Z,1038.1
2016-08-22T01:04:06.329Z,1038.09
2016-08-22T01:05:06.321Z,1038.06
2016-08-22T01:06:06.318Z,1038.08
2016-08-22T01:07:06.317Z,1038.09
2016-08-22T01:08:06.307Z,1038.07
2016-08-22T01:09:06.303Z,1038.05
2016-08-22T01:10:06.298Z,1038.06
2016-08-22T01:11:06.294Z,1038.07
2016-08-22T01:12:06.288Z,1038.09
2016-08-22T01:13:06.286Z,1038.08
2016-08-22T01:14:06.280Z,1038.08
2016-08-22T01:15:06.274Z,1038.09
2016-08-22T01:16:06.271Z,1038.06
2016-08-22T01:17:06.268Z,1038.09
2016-08-22T01:18:06.262Z,1038.12
2016-08-22T01:19:06.257Z,1038.11
2016-08-22T01:20:06.253Z,1038.09
2016-08-22T01:21:06.246Z,1038.04
2016-08-22T01:22:06.241Z,1038.05
2016-08-22T01:23:06.236Z,1038.1
2016-08-22T01:24:06.232Z,1038.13
2016-08-22T01:25:06.227Z,1038.13
2016-08-22T01:26:06.223Z,1038.12
2016-08-22T01:27:06.216Z,1038.15
2016-08-22T01:28:06.212Z,1038.18
2016-08-22T01:29:06.207Z,1038.22
2016-08-22T01:30:06.204Z,1038.19
2016-08-22T01:31:06.197Z,1038.18
2016-08-22T01:32:06.192Z,1038.22
2016-08-22T01:33:06.189Z,1038.24
2016-08-22T01:34:06.182Z,1038.24
2016-08-22T01:35:06.177Z,1038.22
2016-08-22T01:36:06.174Z,1038.27
2016-08-22T01:37:06.171Z,1038.24
2016-08-22T01:38:06.163Z,1038.24
2016-08-22T01:39:07.461Z,1038.31
2016-08-22T01:40:06.158Z,1038.27
2016-08-22T01:41:06.152Z,1038.29
2016-08-22T01:42:06.147Z,1038.31
2016-08-22T01:43:06.143Z,1038.3
2016-08-22T01:44:06.142Z,1038.31
2016-08-22T01:45:06.130Z,1038.26
2016-08-22T01:46:06.127Z,1038.28
2016-08-22T01:47:06.172Z,1038.33
2016-08-22T01:48:06.115Z,1038.32
2016-08-22T01:49:06.112Z,1038.34
2016-08-22T01:50:06.107Z,1038.32
2016-08-22T01:51:06.100Z,1038.34
2016-08-22T01:52:06.097Z,1038.3
2016-08-22T01:53:07.572Z,1038.28
2016-08-22T01:54:06.824Z,1038.29
2016-08-22T01:55:06.083Z,1038.31
2016-08-22T01:56:06.078Z,1038.29
2016-08-22T01:57:06.073Z,1038.31
2016-08-22T01:58:06.069Z,1038.29
2016-08-22T01:59:06.063Z,1038.31
2016-08-22T02:00:06.056Z,1038.33
2016-08-22T02:01:06.054Z,1038.37
2016-08-22T02:02:06.047Z,1038.37
2016-08-22T02:03:06.041Z,1038.38
2016-08-22T02:04:06.575Z,1038.38
2016-08-22T02:05:06.033Z,1038.35
2016-08-22T02:06:06.027Z,1038.39
2016-08-22T02:07:06.022Z,1038.42
2016-08-22T02:08:06.017Z,1038.38
2016-08-22T02:09:06.012Z,1038.36
2016-08-22T02:10:06.009Z,1038.4
2016-08-22T02:11:06.005Z,1038.39
2016-08-22T02:12:05.999Z,1038.4
2016-08-22T02:13:05.994Z,1038.43
2016-08-22T02:14:05.987Z,1038.46
2016-08-22T02:15:05.982Z,1038.46
2016-08-22T02:16:05.978Z,1038.51
2016-08-22T02:17:05.973Z,1038.53
2016-08-22T02:18:05.968Z,1038.53
2016-08-22T02:19:05.963Z,1038.52
2016-08-22T02:20:05.959Z,1038.53
2016-08-22T02:21:05.953Z,1038.54
2016-08-22T02:22:05.950Z,1038.55
2016-08-22T02:23:05.943Z,1038.58
2016-08-22T02:24:05.938Z,1038.64
2016-08-22T02:25:05.932Z,1038.63
2016-08-22T02:26:05.930Z,1038.69
2016-08-22T02:27:05.923Z,1038.66
2016-08-22T02:28:05.920Z,1038.68
2016-08-22T02:29:05.912Z,1038.69
2016-08-22T02:30:05.908Z,1038.74
2016-08-22T02:31:05.905Z,1038.73
2016-08-22T02:32:05.897Z,1038.73
2016-08-22T02:33:05.893Z,1038.75
2016-08-22T02:34:05.888Z,1038.78
2016-08-22T02:35:05.883Z,1038.79
2016-08-22T02:36:05.877Z,1038.83
2016-08-22T02:37:05.875Z,1038.81
2016-08-22T02:38:05.869Z,1038.84
2016-08-22T02:39:05.864Z,1038.84
2016-08-22T02:40:05.858Z,1038.86
2016-08-22T02:41:05.854Z,1038.85
2016-08-22T02:42:05.848Z,1038.86
2016-08-22T02:43:05.843Z,1038.88
2016-08-22T02:44:05.838Z,1038.92
2016-08-22T02:45:05.832Z,1038.9
2016-08-22T02:46:05.827Z,1038.89
2016-08-22T02:47:05.824Z,1038.9
2016-08-22T02:48:05.817Z,1038.96
2016-08-22T02:49:05.814Z,1038.94
2016-08-22T02:50:05.807Z,1038.96
2016-08-22T02:51:05.803Z,1038.96
2016-08-22T02:52:05.797Z,1038.97
2016-08-22T02:53:06.042Z,1038.99
2016-08-22T02:54:05.786Z,1038.99
2016-08-22T02:55:05.781Z,1039.01
2016-08-22T02:56:05.778Z,1038.99
2016-08-22T02:57:06.823Z,1039.02
2016-08-22T02:58:05.766Z,1039.01
2016-08-22T02:59:05.760Z,1039.04
2016-08-22T03:00:05.757Z,1039.01
2016-08-22T03:01:06.452Z,1039.01
2016-08-22T03:02:05.797Z,1039.02
2016-08-22T03:03:05.740Z,1039.09
2016-08-22T03:04:05.736Z,1039.09
2016-08-22T03:05:05.729Z,1039.14
2016-08-22T03:06:05.732Z,1039.13
2016-08-22T03:07:05.720Z,1039.11
2016-08-22T03:08:05.715Z,1039.12
2016-08-22T03:09:05.711Z,1039.07
2016-08-22T03:10:05.705Z,1039.01
2016-08-22T03:11:05.699Z,1038.99
2016-08-22T03:12:05.697Z,1038.95
2016-08-22T03:13:06.818Z,1038.92
2016-08-22T03:14:05.685Z,1038.9
2016-08-22T03:15:05.683Z,1038.89
2016-08-22T03:16:05.676Z,1038.89
2016-08-22T03:17:05.671Z,1038.92
2016-08-22T03:18:05.667Z,1038.96
2016-08-22T03:19:05.662Z,1038.99
2016-08-22T03:20:05.657Z,1039.03
2016-08-22T03:21:05.650Z,1039.06
2016-08-22T03:22:05.646Z,1039.08
2016-08-22T03:23:05.641Z,1039.12
2016-08-22T03:24:05.637Z,1039.11
2016-08-22T03:25:05.913Z,1039.15
2016-08-22T03:26:05.625Z,1039.17
2016-08-22T03:27:05.627Z,1039.15
2016-08-22T03:28:05.614Z,1039.18
2016-08-22T03:29:05.610Z,1039.17
2016-08-22T03:30:05.605Z,1039.2
2016-08-22T03:31:05.600Z,1039.22
2016-08-22T03:32:05.595Z,1039.2
2016-08-22T03:33:05.591Z,1039.24
2016-08-22T03:34:05.586Z,1039.24
2016-08-22T03:35:05.579Z,1039.23
2016-08-22T03:36:05.576Z,1039.23
2016-08-22T03:37:05.569Z,1039.23
2016-08-22T03:38:05.567Z,1039.22
2016-08-22T03:39:05.562Z,1039.11
2016-08-22T03:40:05.554Z,1039.05
2016-08-22T03:41:05.552Z,1039.05
2016-08-22T03:42:05.547Z,1039.01
2016-08-22T03:43:05.539Z,1038.92
2016-08-22T03:44:05.537Z,1038.89
2016-08-22T03:45:05.531Z,1038.88
2016-08-22T03:46:05.532Z,1038.87
2016-08-22T03:47:05.521Z,1038.89
2016-08-22T03:48:05.516Z,1038.89
2016-08-22T03:49:05.510Z,1038.9
2016-08-22T03:50:05.508Z,1038.89
2016-08-22T03:51:05.503Z,1038.88
2016-08-22T03:52:05.496Z,1038.92
2016-08-22T03:53:05.492Z,1038.95
2016-08-22T03:54:05.486Z,1039
2016-08-22T03:55:05.484Z,1038.98
2016-08-22T03:56:05.478Z,1039.04
2016-08-22T03:57:05.472Z,1039.01
2016-08-22T03:58:05.468Z,1039.03
2016-08-22T03:59:05.463Z,1039.05
2016-08-22T04:00:05.458Z,1039
2016-08-22T04:01:05.454Z,1039
2016-08-22T04:02:05.449Z,1038.98
2016-08-22T04:03:05.445Z,1038.95
2016-08-22T04:04:05.439Z,1038.93
2016-08-22T04:05:05.435Z,1038.88
2016-08-22T04:06:05.431Z,1038.89
2016-08-22T04:07:05.427Z,1038.87
2016-08-22T04:08:05.421Z,1038.91
2016-08-22T04:09:05.569Z,1038.9
2016-08-22T04:10:05.413Z,1038.86
2016-08-22T04:11:05.408Z,1038.85
2016-08-22T04:12:05.404Z,1038.81
2016-08-22T04:13:05.402Z,1038.75
2016-08-22T04:14:05.396Z,1038.75
2016-08-22T04:15:05.389Z,1038.75
2016-08-22T04:16:05.387Z,1038.69
2016-08-22T04:17:05.381Z,1038.65
2016-08-22T04:18:05.376Z,1038.58
2016-08-22T04:19:05.373Z,1038.55
2016-08-22T04:20:05.368Z,1038.58
2016-08-22T04:21:05.369Z,1038.55
2016-08-22T04:22:05.359Z,1038.53
2016-08-22T04:23:05.357Z,1038.49
2016-08-22T04:24:05.352Z,1038.49
2016-08-22T04:25:05.350Z,1038.49
2016-08-22T04:26:05.345Z,1038.52
2016-08-22T04:27:05.344Z,1038.5
2016-08-22T04:28:05.336Z,1038.46
2016-08-22T04:29:05.331Z,1038.47
2016-08-22T04:30:05.327Z,1038.43
2016-08-22T04:31:05.322Z,1038.42
2016-08-22T04:32:05.319Z,1038.44
2016-08-22T04:33:05.315Z,1038.4
2016-08-22T04:34:05.312Z,1038.35
2016-08-22T04:35:05.309Z,1038.35
2016-08-22T04:36:05.303Z,1038.27
2016-08-22T04:37:05.298Z,1038.26
2016-08-22T04:38:05.296Z,1038.27
2016-08-22T04:39:05.294Z,1038.27
2016-08-22T04:40:05.288Z,1038.25
2016-08-22T04:41:05.287Z,1038.28
2016-08-22T04:42:05.283Z,1038.24
2016-08-22T04:43:05.279Z,1038.29
2016-08-22T04:44:05.274Z,1038.3
2016-08-22T04:45:05.270Z,1038.29
2016-08-22T04:46:05.266Z,1038.27
2016-08-22T04:47:05.266Z,1038.33
2016-08-22T04:48:05.262Z,1038.26
2016-08-22T04:49:05.257Z,1038.24
2016-08-22T04:50:05.257Z,1038.23
2016-08-22T04:51:05.250Z,1038.14
2016-08-22T04:52:05.248Z,1038.13
2016-08-22T04:53:05.246Z,1038.05
2016-08-22T04:54:05.242Z,1038.06
2016-08-22T04:55:05.238Z,1038.04
2016-08-22T04:56:05.235Z,1038
2016-08-22T04:57:05.231Z,1038.02
2016-08-22T04:58:05.228Z,1037.96
2016-08-22T04:59:05.224Z,1037.93
2016-08-22T05:00:05.228Z,1037.93
2016-08-22T05:01:05.221Z,1037.91
2016-08-22T05:02:05.215Z,1037.9
2016-08-22T05:03:05.214Z,1037.89
2016-08-22T05:04:05.210Z,1037.84
2016-08-22T05:05:05.206Z,1037.82
2016-08-22T05:06:05.205Z,1037.85
2016-08-22T05:07:05.202Z,1037.84
2016-08-22T05:08:05.199Z,1037.84
2016-08-22T05:09:05.194Z,1037.82
2016-08-22T05:10:05.191Z,1037.81
2016-08-22T05:11:05.188Z,1037.8
2016-08-22T05:12:05.186Z,1037.81
2016-08-22T05:13:05.185Z,1037.81
2016-08-22T05:14:05.181Z,1037.82
2016-08-22T05:15:05.182Z,1037.82
2016-08-22T05:16:05.176Z,1037.81
2016-08-22T05:17:05.171Z,1037.84
2016-08-22T05:18:05.171Z,1037.87
2016-08-22T05:19:05.168Z,1037.89
2016-08-22T05:20:05.165Z,1037.87
2016-08-22T05:21:05.161Z,1037.77
2016-08-22T05:22:05.158Z,1037.81
2016-08-22T05:23:05.155Z,1037.79
2016-08-22T05:24:05.153Z,1037.8
2016-08-22T05:25:05.450Z,1037.79
2016-08-22T05:26:05.156Z,1037.78
2016-08-22T05:27:05.596Z,1037.76
2016-08-22T05:28:05.143Z,1037.72
2016-08-22T05:29:05.147Z,1037.64
2016-08-22T05:30:05.506Z,1037.61
2016-08-22T05:31:05.137Z,1037.6
2016-08-22T05:32:05.135Z,1037.57
2016-08-22T05:33:05.133Z,1037.43
2016-08-22T05:34:05.129Z,1037.4
2016-08-22T05:35:05.128Z,1037.36
2016-08-22T05:37:05.129Z,1037.2
2016-08-22T05:38:05.122Z,1037.11
2016-08-22T05:39:05.120Z,1036.9
2016-08-22T05:40:05.115Z,1036.83
2016-08-22T05:41:06.095Z,1036.68
2016-08-22T05:42:05.114Z,1036.61
2016-08-22T05:43:05.111Z,1036.55
2016-08-22T05:44:05.110Z,1036.57
2016-08-22T05:45:05.108Z,1036.6
2016-08-22T05:46:05.106Z,1036.64
2016-08-22T05:47:05.105Z,1036.58
2016-08-22T05:48:05.105Z,1036.61
2016-08-22T05:49:05.105Z,1036.62
2016-08-22T05:50:05.103Z,1036.57
2016-08-22T05:51:05.102Z,1036.58
2016-08-22T05:52:05.100Z,1036.58
2016-08-22T05:53:05.098Z,1036.34
2016-08-22T05:54:05.097Z,1035.92
2016-08-22T05:55:05.099Z,1035.79
2016-08-22T05:56:05.097Z,1035.62
2016-08-22T05:57:05.095Z,1035.51
2016-08-22T05:58:05.097Z,1035.22
2016-08-22T05:59:05.098Z,1034.88
2016-08-22T06:00:05.097Z,1034.59
2016-08-22T06:01:05.097Z,1034.25
2016-08-22T06:02:05.098Z,1033.99
2016-08-22T06:03:05.098Z,1033.71
2016-08-22T06:04:05.099Z,1033.48
2016-08-22T06:05:05.102Z,1033.3
2016-08-22T06:06:05.115Z,1033.04
2016-08-22T06:07:05.109Z,1032.99
2016-08-22T06:08:05.110Z,1032.74
2016-08-22T06:09:05.116Z,1032.54
2016-08-22T06:10:05.118Z,1032.35
2016-08-22T06:11:05.128Z,1032.2
2016-08-22T06:12:05.128Z,1032.03
2016-08-22T06:13:05.132Z,1031.93
2016-08-22T06:14:05.140Z,1031.9
2016-08-22T06:15:05.143Z,1032.07
2016-08-22T06:16:05.149Z,1031.82
2016-08-22T06:17:05.156Z,1031.84
2016-08-22T06:18:05.163Z,1031.92
2016-08-22T06:19:05.170Z,1031.74
2016-08-22T06:20:05.178Z,1031.48
2016-08-22T06:21:05.185Z,1031.48
2016-08-22T06:22:05.192Z,1031.38
2016-08-22T06:23:05.201Z,1031.34
2016-08-22T06:24:05.208Z,1031.25
2016-08-22T06:25:05.216Z,1031.06
2016-08-22T06:26:05.224Z,1030.94
2016-08-22T06:27:05.234Z,1030.81
2016-08-22T06:28:05.244Z,1030.8
2016-08-22T06:29:05.251Z,1030.73
2016-08-22T06:30:05.260Z,1030.67
2016-08-22T06:31:05.270Z,1030.46
2016-08-22T06:32:05.279Z,1030.42
2016-08-22T06:33:05.288Z,1030.88
2016-08-22T06:34:05.301Z,1031.25
2016-08-22T06:35:05.309Z,1031.82
2016-08-22T06:36:05.320Z,1032.18
2016-08-22T06:37:05.330Z,1032.65
2016-08-22T06:38:05.342Z,1032.21
2016-08-22T06:39:05.352Z,1032.31
2016-08-22T06:40:05.358Z,1032.04
2016-08-22T06:41:05.369Z,1031.95
2016-08-22T06:42:05.379Z,1031.95
2016-08-22T06:43:06.289Z,1031.96
2016-08-22T06:45:05.408Z,1031.62
2016-08-22T06:47:05.753Z,1032.11
2016-08-22T06:48:06.918Z,1032.35
2016-08-22T06:49:05.446Z,1032.55
2016-08-22T06:50:05.457Z,1032.8
2016-08-22T06:51:05.466Z,1033.03
2016-08-22T06:52:06.178Z,1033.31
2016-08-22T06:54:05.495Z,1033.65
2016-08-22T06:55:05.504Z,1033.89
2016-08-22T06:56:05.515Z,1034.2
2016-08-22T06:57:06.542Z,1034.42
2016-08-22T06:58:05.532Z,1034.62
2016-08-22T06:59:05.539Z,1034.82
2016-08-22T07:00:05.548Z,1035.03
2016-08-22T07:01:05.557Z,1035.21
2016-08-22T07:02:05.564Z,1035.46
2016-08-22T07:03:05.571Z,1035.61
2016-08-22T07:04:05.579Z,1035.65
2016-08-22T07:05:05.586Z,1035.7
2016-08-22T07:06:05.593Z,1035.83
2016-08-22T07:07:05.603Z,1035.97
2016-08-22T07:08:05.608Z,1036.09
2016-08-22T07:09:05.615Z,1036.24
2016-08-22T07:10:05.621Z,1036.38
2016-08-22T07:11:05.627Z,1036.21
2016-08-22T07:12:05.636Z,1035.83
2016-08-22T07:13:05.639Z,1034.85
2016-08-22T07:14:05.647Z,1034.39
2016-08-22T07:15:05.653Z,1035.23
2016-08-22T07:16:05.657Z,1034.16
2016-08-22T07:17:05.669Z,1033.32
2016-08-22T07:18:05.669Z,1032.59
2016-08-22T07:19:05.678Z,1032.59
2016-08-22T07:20:05.685Z,1031.95
2016-08-22T07:21:05.688Z,1031.07
2016-08-22T07:22:05.697Z,1031.49
2016-08-22T07:23:05.705Z,1031.06
2016-08-22T07:24:05.714Z,1031
2016-08-22T07:25:05.720Z,1030.63
2016-08-22T07:26:05.728Z,1030.42
2016-08-22T07:27:05.744Z,1030.33
2016-08-22T07:28:05.746Z,1030
2016-08-22T07:29:05.757Z,1029.8
2016-08-22T07:30:05.765Z,1030.44
2016-08-22T07:31:05.775Z,1030.75
2016-08-22T07:32:05.785Z,1031.36
2016-08-22T07:33:05.797Z,1032.14
2016-08-22T07:34:05.806Z,1032.15
2016-08-22T07:35:05.820Z,1032.99
2016-08-22T07:36:05.827Z,1032.74
2016-08-22T07:37:05.837Z,1032.54
2016-08-22T07:38:05.846Z,1032
2016-08-22T07:39:05.855Z,1032.51
2016-08-22T07:40:05.867Z,1032.96
2016-08-22T07:41:05.874Z,1032.94
2016-08-22T07:42:05.899Z,1032.68
2016-08-22T07:43:05.896Z,1032.82
2016-08-22T07:44:05.906Z,1032.25
2016-08-22T07:45:05.917Z,1031.49
2016-08-22T07:46:05.927Z,1031.04
2016-08-22T07:47:05.934Z,1030.61
2016-08-22T07:48:05.948Z,1030.52
2016-08-22T07:49:05.957Z,1030.23
2016-08-22T07:51:05.980Z,1029.61
2016-08-22T07:52:05.990Z,1029.39
2016-08-22T07:53:06.002Z,1029.23
2016-08-22T07:54:06.014Z,1028.96
2016-08-22T07:55:06.025Z,1029.26
2016-08-22T07:56:06.041Z,1029.48
2016-08-22T07:57:06.052Z,1030.47
2016-08-22T07:58:06.066Z,1031.36
2016-08-22T07:59:06.079Z,1032.08
2016-08-22T08:00:06.092Z,1030.66
2016-08-22T08:02:06.114Z,1031.94
2016-08-22T08:03:06.127Z,1032.45
2016-08-22T08:04:06.142Z,1032.81
2016-08-22T08:05:07.181Z,1032.47
2016-08-22T08:06:06.364Z,1032.67
2016-08-22T08:07:06.755Z,1031.38
2016-08-22T08:08:06.573Z,1030.82
2016-08-22T08:09:06.197Z,1030.69
2016-08-22T08:11:06.221Z,1030.61
2016-08-22T08:12:06.232Z,1030.46
2016-08-22T08:13:06.243Z,1030.33
2016-08-22T08:14:06.256Z,1030.66
2016-08-22T08:16:06.481Z,1030.63
2016-08-22T08:17:06.292Z,1030.5
2016-08-22T08:18:06.307Z,1030.32
2016-08-22T08:19:06.329Z,1030.3
2016-08-22T08:20:06.331Z,1031.22
2016-08-22T08:21:06.341Z,1032.06
2016-08-22T08:22:06.421Z,1032.54
2016-08-22T08:23:06.367Z,1032.61
2016-08-22T08:24:06.377Z,1032.53
2016-08-22T08:25:06.389Z,1032.67
2016-08-22T08:26:06.403Z,1031.86
2016-08-22T08:27:06.414Z,1031.2
2016-08-22T08:28:06.427Z,1030.87
2016-08-22T08:29:06.438Z,1031.76
2016-08-22T08:30:06.446Z,1032.43
2016-08-22T08:31:06.459Z,1032.46
2016-08-22T08:32:06.471Z,1032.93
2016-08-22T08:33:06.484Z,1033.34
2016-08-22T08:34:06.494Z,1033.51
2016-08-22T08:35:06.504Z,1033.68
2016-08-22T08:36:06.515Z,1033.85
2016-08-22T08:37:06.527Z,1034.06
2016-08-22T08:38:06.537Z,1034.31
2016-08-22T08:39:06.550Z,1034.7
2016-08-22T08:40:06.560Z,1035
2016-08-22T08:41:06.569Z,1035.22
2016-08-22T08:42:06.578Z,1035.35
2016-08-22T08:43:06.588Z,1035.49
2016-08-22T08:44:06.600Z,1035.57
2016-08-22T08:45:06.606Z,1035.6
2016-08-22T08:46:06.618Z,1035.59
2016-08-22T08:47:06.627Z,1035.59
2016-08-22T08:48:06.636Z,1035.58
2016-08-22T08:49:06.644Z,1035.55
2016-08-22T08:50:06.650Z,1035.45
2016-08-22T08:51:06.662Z,1035.4
2016-08-22T08:52:06.667Z,1035.31
2016-08-22T08:53:06.678Z,1035.34
2016-08-22T08:54:06.686Z,1035.45
2016-08-22T08:55:06.693Z,1035.6
2016-08-22T08:56:06.702Z,1035.84
2016-08-22T08:57:06.708Z,1035.95
2016-08-22T08:58:06.717Z,1035.96
2016-08-22T08:59:06.726Z,1035.96
2016-08-22T09:00:06.732Z,1035.95
2016-08-22T09:01:06.741Z,1036.11
2016-08-22T09:02:06.748Z,1036.23
2016-08-22T09:03:06.755Z,1036.34
2016-08-22T09:04:06.762Z,1036.49
2016-08-22T09:05:06.768Z,1036.66
2016-08-22T09:06:06.776Z,1036.86
2016-08-22T09:07:06.781Z,1036.96
2016-08-22T09:08:06.788Z,1036.94
2016-08-22T09:09:06.795Z,1036.81
2016-08-22T09:10:06.802Z,1036.67
2016-08-22T09:11:06.808Z,1036.53
2016-08-22T09:12:06.815Z,1036.25
2016-08-22T09:13:06.824Z,1036.09
2016-08-22T09:14:06.828Z,1035.91
2016-08-22T09:15:06.835Z,1035.89
2016-08-22T09:16:06.842Z,1036.02
2016-08-22T09:17:06.847Z,1036.06
2016-08-22T09:18:06.852Z,1036.11
2016-08-22T09:19:07.418Z,1036.18
2016-08-22T09:20:06.866Z,1036.21
2016-08-22T09:21:07.225Z,1036.37
2016-08-22T09:22:06.879Z,1036.34
2016-08-22T09:24:06.891Z,1036.15
2016-08-22T09:25:06.898Z,1036.16
2016-08-22T09:26:06.905Z,1036.07
2016-08-22T09:27:06.909Z,1036.06
2016-08-22T09:28:07.669Z,1036.24
2016-08-22T09:29:06.924Z,1036.38
2016-08-22T09:30:07.681Z,1036.48
2016-08-22T09:31:07.037Z,1036.63
2016-08-22T09:32:08.029Z,1036.54
2016-08-22T09:33:06.950Z,1036.37
2016-08-22T09:34:08.349Z,1036.17
2016-08-22T09:35:06.962Z,1036.19
2016-08-22T09:36:06.966Z,1036.32
2016-08-22T09:37:06.973Z,1036.54
2016-08-22T09:38:06.982Z,1036.67
2016-08-22T09:39:07.034Z,1036.83
2016-08-22T09:40:06.990Z,1036.93
2016-08-22T09:41:06.998Z,1036.95
2016-08-22T09:42:07.004Z,1037.03
2016-08-22T09:43:07.010Z,1037.06
2016-08-22T09:44:07.014Z,1037.16
2016-08-22T09:45:07.023Z,1037.27
2016-08-22T09:46:07.026Z,1037.33
2016-08-22T09:47:07.031Z,1037.43
2016-08-22T09:48:07.040Z,1037.53
2016-08-22T09:49:07.043Z,1037.58
2016-08-22T09:50:07.051Z,1037.75
2016-08-22T09:51:07.053Z,1037.76
2016-08-22T09:52:07.061Z,1037.77
2016-08-22T09:53:07.066Z,1037.85
2016-08-22T09:54:07.072Z,1037.96
2016-08-22T09:55:07.073Z,1038.05
2016-08-22T09:56:07.080Z,1038.08
2016-08-22T09:57:07.086Z,1038.03
2016-08-22T09:58:07.089Z,1037.9
2016-08-22T09:59:07.092Z,1037.82
2016-08-22T10:00:07.098Z,1037.69
2016-08-22T10:01:07.101Z,1037.62
2016-08-22T10:02:07.107Z,1037.52
2016-08-22T10:03:07.110Z,1037.42
2016-08-22T10:04:07.116Z,1037.34
2016-08-22T10:05:07.120Z,1037.27
2016-08-22T10:06:07.122Z,1037.26
2016-08-22T10:07:07.129Z,1037.31
2016-08-22T10:08:07.133Z,1037.36
2016-08-22T10:09:07.136Z,1037.38
2016-08-22T10:10:07.139Z,1037.44
2016-08-22T10:11:07.144Z,1037.52
2016-08-22T10:12:07.151Z,1037.63
2016-08-22T10:13:07.152Z,1037.5
2016-08-22T10:14:07.156Z,1037.42
2016-08-22T10:15:07.161Z,1037.39
2016-08-22T10:16:07.164Z,1037.22
2016-08-22T10:17:07.171Z,1037.04
2016-08-22T10:18:07.176Z,1036.87
2016-08-22T10:19:07.178Z,1036.73
2016-08-22T10:20:07.184Z,1036.71
2016-08-22T10:21:07.189Z,1036.75
2016-08-22T10:22:07.190Z,1036.9
2016-08-22T10:23:07.199Z,1037.14
2016-08-22T10:24:07.202Z,1037.12
2016-08-22T10:25:07.206Z,1037.31
2016-08-22T10:26:07.212Z,1037.36
2016-08-22T10:27:07.216Z,1037.45
2016-08-22T10:28:07.228Z,1037.54
2016-08-22T10:29:07.224Z,1037.66
2016-08-22T10:30:07.231Z,1037.7
2016-08-22T10:31:07.235Z,1037.74
2016-08-22T10:32:07.237Z,1037.77
2016-08-22T10:33:07.244Z,1037.81
2016-08-22T10:34:07.247Z,1037.8
2016-08-22T10:35:07.250Z,1037.77
2016-08-22T10:36:07.257Z,1037.77
2016-08-22T10:37:07.262Z,1037.77
2016-08-22T10:38:07.265Z,1037.78
2016-08-22T10:39:07.267Z,1037.79
2016-08-22T10:40:07.276Z,1037.75
2016-08-22T10:42:07.882Z,1037.61
2016-08-22T10:43:07.535Z,1037.5
2016-08-22T10:44:07.289Z,1037.32
2016-08-22T10:45:08.040Z,1037.29
2016-08-22T10:46:07.297Z,1037.29
2016-08-22T10:47:07.538Z,1037.32
2016-08-22T10:48:07.308Z,1037.37
2016-08-22T10:49:07.310Z,1037.38
2016-08-22T10:50:08.296Z,1037.44
2016-08-22T10:51:07.320Z,1037.5
2016-08-22T10:52:07.327Z,1037.54
2016-08-22T10:53:07.329Z,1037.58
2016-08-22T10:54:08.182Z,1037.68
2016-08-22T10:55:07.360Z,1037.73
2016-08-22T10:56:07.342Z,1037.74
2016-08-22T10:57:07.344Z,1037.82
2016-08-22T10:58:07.350Z,1037.88
2016-08-22T10:59:07.355Z,1037.91
2016-08-22T11:00:07.357Z,1037.9
2016-08-22T11:01:07.361Z,1037.93
2016-08-22T11:02:07.366Z,1037.86
2016-08-22T11:03:07.370Z,1037.88
2016-08-22T11:04:07.372Z,1037.87
2016-08-22T11:05:07.375Z,1037.92
2016-08-22T11:06:07.387Z,1037.91
2016-08-22T11:07:07.384Z,1037.85
2016-08-22T11:08:07.388Z,1037.85
2016-08-22T11:09:07.394Z,1037.89
2016-08-22T11:10:07.397Z,1037.86
2016-08-22T11:11:07.400Z,1037.89
2016-08-22T11:12:07.404Z,1037.9
2016-08-22T11:13:07.407Z,1037.88
2016-08-22T11:14:07.411Z,1037.85
2016-08-22T11:15:07.416Z,1037.86
2016-08-22T11:16:07.419Z,1037.8
2016-08-22T11:17:07.423Z,1037.83
2016-08-22T11:18:07.426Z,1037.8
2016-08-22T11:19:07.429Z,1037.74
2016-08-22T11:20:07.434Z,1037.75
2016-08-22T11:21:07.438Z,1037.71
2016-08-22T11:22:07.439Z,1037.69
2016-08-22T11:23:07.445Z,1037.61
2016-08-22T11:24:07.447Z,1037.68
2016-08-22T11:25:07.453Z,1037.63
2016-08-22T11:26:07.456Z,1037.6
2016-08-22T11:27:07.458Z,1037.61
2016-08-22T11:28:07.462Z,1037.59
2016-08-22T11:29:07.465Z,1037.6
2016-08-22T11:30:07.469Z,1037.71
2016-08-22T11:31:07.476Z,1037.7
2016-08-22T11:32:07.478Z,1037.75
2016-08-22T11:33:07.478Z,1037.73
2016-08-22T11:34:07.483Z,1037.75
2016-08-22T11:35:07.489Z,1037.68
2016-08-22T11:36:07.491Z,1037.67
2016-08-22T11:37:07.494Z,1037.63
2016-08-22T11:38:07.498Z,1037.6
2016-08-22T11:39:07.500Z,1037.58
2016-08-22T11:40:07.506Z,1037.6
2016-08-22T11:41:07.509Z,1037.55
2016-08-22T11:42:07.510Z,1037.56
2016-08-22T11:43:07.516Z,1037.51
2016-08-22T11:44:07.519Z,1037.5
2016-08-22T11:45:07.528Z,1037.51
2016-08-22T11:46:07.524Z,1037.53
2016-08-22T11:47:07.528Z,1037.57
2016-08-22T11:48:07.533Z,1037.58
2016-08-22T11:49:07.535Z,1037.62
2016-08-22T11:50:07.540Z,1037.64
2016-08-22T11:51:07.542Z,1037.71
2016-08-22T11:52:07.550Z,1037.67
2016-08-22T11:53:07.554Z,1037.65
2016-08-22T11:54:07.555Z,1037.62
2016-08-22T11:55:07.558Z,1037.56
2016-08-22T11:56:07.909Z,1037.53
2016-08-22T11:57:07.565Z,1037.55
2016-08-22T11:58:07.569Z,1037.55
2016-08-22T11:59:08.121Z,1037.5
2016-08-22T12:00:08.158Z,1037.48
2016-08-22T12:01:07.579Z,1037.42
2016-08-22T12:02:08.541Z,1037.41
2016-08-22T12:03:07.586Z,1037.35
2016-08-22T12:04:07.588Z,1037.35
2016-08-22T12:05:08.143Z,1037.29
2016-08-22T12:06:07.596Z,1037.34
2016-08-22T12:07:07.600Z,1037.31
2016-08-22T12:08:07.601Z,1037.3
2016-08-22T12:09:07.906Z,1037.29
2016-08-22T12:10:07.614Z,1037.28
2016-08-22T12:11:08.401Z,1037.26
2016-08-22T12:12:07.616Z,1037.16
2016-08-22T12:13:07.621Z,1037.09
2016-08-22T12:14:07.622Z,1037.12
2016-08-22T12:15:07.628Z,1037.11
2016-08-22T12:16:07.631Z,1037.09
2016-08-22T12:17:07.635Z,1037.09
2016-08-22T12:18:07.638Z,1037.06
2016-08-22T12:19:07.644Z,1037.04
2016-08-22T12:20:07.646Z,1036.98